Aviation Digital Data Service (ADDS)

Output produced by METARs form (1010 UTC 04 December 2016)
found at http://www.aviationweather.gov/adds/metars/
 
SEGU 041000Z 22004KT 9999 FEW020 BKN030 BKN090 24/19 Q1011 NOSIG RMK A2985
SEGU 040415Z 0406/0506 22008KT 9999 SCT020 BKN090 
     FM041600 19006KT 9999 SCT023 SCT100 
     FM050000 22012KT 9999 FEW020 SCT090 TX31/0420Z TN23/0410Z
       
SEMT 041000Z 22004KT 9999 OVC026 23/21 Q1012 RMK A2988
SEMT 040415Z 0406/0506 24006KT 9999 FEW026 
     FM041200 21008KT 9999 SCT026 
     FM041800 27010KT 9999 BKN030 
     FM050000 24006KT 9999 FEW026 TX33/0420Z TN23/0410Z